createdAt,value
2016-12-05T00:00:09.979Z,23.38
2016-12-05T00:00:50.729Z,23.38
2016-12-05T00:01:31.506Z,23.38
2016-12-05T00:02:12.284Z,23.4
2016-12-05T00:02:53.058Z,23.38
2016-12-05T00:03:33.826Z,23.33
2016-12-05T00:04:14.632Z,23.36
2016-12-05T00:04:55.366Z,23.33
2016-12-05T00:05:36.150Z,23.42
2016-12-05T00:06:16.935Z,23.43
2016-12-05T00:06:57.669Z,23.43
2016-12-05T00:07:38.464Z,23.38
2016-12-05T00:08:19.220Z,23.39
2016-12-05T00:09:00.008Z,23.38
2016-12-05T00:09:40.749Z,23.36
2016-12-05T00:10:21.525Z,23.43
2016-12-05T00:11:02.282Z,23.35
2016-12-05T00:11:43.031Z,23.25
2016-12-05T00:12:23.809Z,23.35
2016-12-05T00:13:04.547Z,23.33
2016-12-05T00:13:45.323Z,23.35
2016-12-05T00:14:26.072Z,23.35
2016-12-05T00:15:06.820Z,23.42
2016-12-05T00:15:47.604Z,23.33
2016-12-05T00:16:28.381Z,23.38
2016-12-05T00:17:09.138Z,23.35
2016-12-05T00:17:49.875Z,23.39
2016-12-05T00:18:30.648Z,23.46
2016-12-05T00:19:11.397Z,23.39
2016-12-05T00:19:52.138Z,23.36
2016-12-05T00:20:32.900Z,23.38
2016-12-05T00:21:13.707Z,23.35
2016-12-05T00:21:54.453Z,23.39
2016-12-05T00:22:35.188Z,23.39
2016-12-05T00:23:15.989Z,23.33
2016-12-05T00:23:56.728Z,23.38
2016-12-05T00:24:37.474Z,23.33
2016-12-05T00:25:18.246Z,23.43
2016-12-05T00:25:59.043Z,23.35
2016-12-05T00:26:39.787Z,23.36
2016-12-05T00:27:20.556Z,23.38
2016-12-05T00:28:01.338Z,23.38
2016-12-05T00:28:42.087Z,23.39
2016-12-05T00:29:22.842Z,23.35
2016-12-05T00:30:03.624Z,23.36
2016-12-05T00:30:44.385Z,23.39
2016-12-05T00:31:25.144Z,23.39
2016-12-05T00:32:05.933Z,23.31
2016-12-05T00:32:46.676Z,23.39
2016-12-05T00:33:27.419Z,23.39
2016-12-05T00:34:08.230Z,23.4
2016-12-05T00:34:49.000Z,23.39
2016-12-05T00:35:29.813Z,23.39
2016-12-05T00:36:10.634Z,23.38
2016-12-05T00:36:51.404Z,23.28
2016-12-05T00:37:32.136Z,23.33
2016-12-05T00:38:12.928Z,23.4
2016-12-05T00:38:53.719Z,23.43
2016-12-05T00:39:34.467Z,23.39
2016-12-05T00:40:15.289Z,23.38
2016-12-05T00:40:56.065Z,23.35
2016-12-05T00:41:36.810Z,23.38
2016-12-05T00:42:17.569Z,23.36
2016-12-05T00:42:58.356Z,23.43
2016-12-05T00:43:39.144Z,23.36
2016-12-05T00:44:19.893Z,23.39
2016-12-05T00:45:00.669Z,23.38
2016-12-05T00:45:41.416Z,23.33
2016-12-05T00:46:22.188Z,23.28
2016-12-05T00:47:03.001Z,23.31
2016-12-05T00:47:43.767Z,23.32
2016-12-05T00:48:24.519Z,23.28
2016-12-05T00:49:05.299Z,23.31
2016-12-05T00:49:46.092Z,23.32
2016-12-05T00:50:26.831Z,23.35
2016-12-05T00:51:07.600Z,23.42
2016-12-05T00:51:48.406Z,23.38
2016-12-05T00:52:29.124Z,23.4
2016-12-05T00:53:09.902Z,23.38
2016-12-05T00:53:50.659Z,23.38
2016-12-05T00:54:31.422Z,23.42
2016-12-05T00:55:12.190Z,23.39
2016-12-05T00:55:52.983Z,23.36
2016-12-05T00:56:33.750Z,23.42
2016-12-05T00:57:14.560Z,23.36
2016-12-05T00:57:55.349Z,23.38
2016-12-05T00:58:36.103Z,23.36
2016-12-05T00:59:16.847Z,23.36
2016-12-05T00:59:57.611Z,23.32
2016-12-05T01:00:38.366Z,23.36
2016-12-05T01:01:19.118Z,23.39
2016-12-05T01:01:59.871Z,23.36
2016-12-05T01:02:40.654Z,23.33
2016-12-05T01:03:21.390Z,23.36
2016-12-05T01:04:02.166Z,23.38
2016-12-05T01:04:42.950Z,23.36
2016-12-05T01:05:23.749Z,23.33
2016-12-05T01:06:04.510Z,23.31
2016-12-05T01:06:45.271Z,23.33
2016-12-05T01:07:26.025Z,23.4
2016-12-05T01:08:06.787Z,23.36
2016-12-05T01:08:47.560Z,23.35
2016-12-05T01:09:28.303Z,23.32
2016-12-05T01:10:09.064Z,23.28
2016-12-05T01:10:49.824Z,23.32
2016-12-05T01:11:30.607Z,23.28
2016-12-05T01:12:11.406Z,23.31
2016-12-05T01:12:52.205Z,23.32
2016-12-05T01:13:32.966Z,23.35
2016-12-05T01:14:13.712Z,23.31
2016-12-05T01:14:54.495Z,23.33
2016-12-05T01:15:35.271Z,23.31
2016-12-05T01:16:16.015Z,23.31
2016-12-05T01:16:56.770Z,23.36
2016-12-05T01:17:37.544Z,23.31
2016-12-05T01:18:18.304Z,23.23
2016-12-05T01:18:59.041Z,23.36
2016-12-05T01:19:39.857Z,23.32
2016-12-05T01:20:20.618Z,23.36
2016-12-05T01:21:01.367Z,23.33
2016-12-05T01:21:42.134Z,23.35
2016-12-05T01:22:22.906Z,23.31
2016-12-05T01:23:03.641Z,23.28
2016-12-05T01:23:44.416Z,23.33
2016-12-05T01:24:25.184Z,23.36
2016-12-05T01:25:05.939Z,23.28
2016-12-05T01:25:46.713Z,23.28
2016-12-05T01:26:27.446Z,23.31
2016-12-05T01:27:08.185Z,23.32
2016-12-05T01:27:48.938Z,23.27
2016-12-05T01:28:29.744Z,23.31
2016-12-05T01:29:10.499Z,23.25
2016-12-05T01:29:51.263Z,23.31
2016-12-05T01:30:32.045Z,23.31
2016-12-05T01:31:12.792Z,23.33
2016-12-05T01:31:53.536Z,23.32
2016-12-05T01:32:34.320Z,23.32
2016-12-05T01:33:15.083Z,23.27
2016-12-05T01:33:55.827Z,23.36
2016-12-05T01:34:36.590Z,23.4
2016-12-05T01:35:17.360Z,23.28
2016-12-05T01:35:58.126Z,23.31
2016-12-05T01:36:38.876Z,23.33
2016-12-05T01:37:19.645Z,23.32
2016-12-05T01:38:00.389Z,23.35
2016-12-05T01:38:41.149Z,23.33
2016-12-05T01:39:21.941Z,23.31
2016-12-05T01:40:02.707Z,23.33
2016-12-05T01:40:43.465Z,23.33
2016-12-05T01:41:24.233Z,23.33
2016-12-05T01:42:04.981Z,23.35
2016-12-05T01:42:45.749Z,23.31
2016-12-05T01:43:26.506Z,23.35
2016-12-05T01:44:07.293Z,23.32
2016-12-05T01:44:48.067Z,23.27
2016-12-05T01:45:28.815Z,23.31
2016-12-05T01:46:09.578Z,23.33
2016-12-05T01:46:50.319Z,23.33
2016-12-05T01:47:31.063Z,23.25
2016-12-05T01:48:11.819Z,23.33
2016-12-05T01:48:52.588Z,23.31
2016-12-05T01:49:33.335Z,23.23
2016-12-05T01:50:14.124Z,23.22
2016-12-05T01:50:54.887Z,23.36
2016-12-05T01:51:35.616Z,23.33
2016-12-05T01:52:16.414Z,23.22
2016-12-05T01:52:57.205Z,23.31
2016-12-05T01:53:37.994Z,23.22
2016-12-05T01:54:18.754Z,23.28
2016-12-05T01:54:59.528Z,23.25
2016-12-05T01:55:40.276Z,23.25
2016-12-05T01:56:21.042Z,23.27
2016-12-05T01:57:01.800Z,23.31
2016-12-05T01:57:42.563Z,23.31
2016-12-05T01:58:23.326Z,23.32
2016-12-05T01:59:04.101Z,23.28
2016-12-05T01:59:44.859Z,23.32
2016-12-05T02:00:25.606Z,23.36
2016-12-05T02:01:06.381Z,23.31
2016-12-05T02:01:47.153Z,23.28
2016-12-05T02:02:27.915Z,23.31
2016-12-05T02:03:08.696Z,23.31
2016-12-05T02:03:49.471Z,23.25
2016-12-05T02:04:30.267Z,23.28
2016-12-05T02:05:11.028Z,23.27
2016-12-05T02:05:51.800Z,23.32
2016-12-05T02:06:32.542Z,23.31
2016-12-05T02:07:13.327Z,23.35
2016-12-05T02:07:54.091Z,23.32
2016-12-05T02:08:34.827Z,23.28
2016-12-05T02:09:15.582Z,23.27
2016-12-05T02:09:56.384Z,23.28
2016-12-05T02:10:37.130Z,23.31
2016-12-05T02:11:17.897Z,23.31
2016-12-05T02:11:58.678Z,23.33
2016-12-05T02:12:39.431Z,23.31
2016-12-05T02:13:20.175Z,23.22
2016-12-05T02:14:00.986Z,23.32
2016-12-05T02:14:41.806Z,23.31
2016-12-05T02:15:22.564Z,23.25
2016-12-05T02:16:03.327Z,23.25
2016-12-05T02:16:44.063Z,23.31
2016-12-05T02:17:24.853Z,23.38
2016-12-05T02:18:05.598Z,23.31
2016-12-05T02:18:46.348Z,23.27
2016-12-05T02:19:27.131Z,23.28
2016-12-05T02:20:07.897Z,23.33
2016-12-05T02:20:48.669Z,23.38
2016-12-05T02:21:29.423Z,23.25
2016-12-05T02:22:10.196Z,23.23
2016-12-05T02:22:50.951Z,23.23
2016-12-05T02:23:31.698Z,23.33
2016-12-05T02:24:12.461Z,23.23
2016-12-05T02:24:53.200Z,23.25
2016-12-05T02:25:33.980Z,23.33
2016-12-05T02:26:14.757Z,23.23
2016-12-05T02:26:55.507Z,23.31
2016-12-05T02:27:36.245Z,23.33
2016-12-05T02:28:17.039Z,23.27
2016-12-05T02:28:57.799Z,23.31
2016-12-05T02:29:38.535Z,23.33
2016-12-05T02:30:19.315Z,23.35
2016-12-05T02:31:00.062Z,23.35
2016-12-05T02:31:40.832Z,23.28
2016-12-05T02:32:21.600Z,23.25
2016-12-05T02:33:02.378Z,23.22
2016-12-05T02:33:43.118Z,23.25
2016-12-05T02:34:23.897Z,23.22
2016-12-05T02:35:04.646Z,23.25
2016-12-05T02:35:45.391Z,23.23
2016-12-05T02:36:26.185Z,23.23
2016-12-05T02:37:06.951Z,23.25
2016-12-05T02:37:47.705Z,23.27
2016-12-05T02:38:28.461Z,23.31
2016-12-05T02:39:09.240Z,23.25
2016-12-05T02:39:50.036Z,23.22
2016-12-05T02:40:30.813Z,23.23
2016-12-05T02:41:11.600Z,23.23
2016-12-05T02:41:52.376Z,23.23
2016-12-05T02:42:33.172Z,23.23
2016-12-05T02:43:13.976Z,23.23
2016-12-05T02:43:54.757Z,23.17
2016-12-05T02:44:35.507Z,23.28
2016-12-05T02:45:16.268Z,23.32
2016-12-05T02:45:57.025Z,23.22
2016-12-05T02:46:37.761Z,23.32
2016-12-05T02:47:18.532Z,23.22
2016-12-05T02:47:59.296Z,23.28
2016-12-05T02:48:40.048Z,23.23
2016-12-05T02:49:20.814Z,23.19
2016-12-05T02:50:01.594Z,23.32
2016-12-05T02:50:42.357Z,23.31
2016-12-05T02:51:23.117Z,23.28
2016-12-05T02:52:03.902Z,23.25
2016-12-05T02:52:44.646Z,23.22
2016-12-05T02:53:25.405Z,23.19
2016-12-05T02:54:06.152Z,23.32
2016-12-05T02:54:46.927Z,23.2
2016-12-05T02:55:27.667Z,23.27
2016-12-05T02:56:08.422Z,23.27
2016-12-05T02:56:49.194Z,23.2
2016-12-05T02:57:29.915Z,23.31
2016-12-05T02:58:10.688Z,23.22
2016-12-05T02:58:51.460Z,23.23
2016-12-05T02:59:32.210Z,23.25
2016-12-05T03:00:12.983Z,23.27
2016-12-05T03:00:53.759Z,23.25
2016-12-05T03:01:34.544Z,23.17
2016-12-05T03:02:15.283Z,23.23
2016-12-05T03:02:56.086Z,23.19
2016-12-05T03:03:36.853Z,23.27
2016-12-05T03:04:17.654Z,23.31
2016-12-05T03:04:58.433Z,23.25
2016-12-05T03:05:39.205Z,23.25
2016-12-05T03:06:19.973Z,23.32
2016-12-05T03:07:00.733Z,23.31
2016-12-05T03:07:41.484Z,23.31
2016-12-05T03:08:22.240Z,23.31
2016-12-05T03:09:03.044Z,23.28
2016-12-05T03:09:43.836Z,23.32
2016-12-05T03:10:24.589Z,23.23
2016-12-05T03:11:05.333Z,23.31
2016-12-05T03:11:46.106Z,23.23
2016-12-05T03:12:26.870Z,23.25
2016-12-05T03:13:07.618Z,23.28
2016-12-05T03:13:48.420Z,23.23
2016-12-05T03:14:29.174Z,23.2
2016-12-05T03:15:09.947Z,23.32
2016-12-05T03:15:50.737Z,23.23
2016-12-05T03:16:31.537Z,23.22
2016-12-05T03:17:12.282Z,23.28
2016-12-05T03:17:53.032Z,23.2
2016-12-05T03:18:33.804Z,23.27
2016-12-05T03:19:14.537Z,23.27
2016-12-05T03:19:55.307Z,23.32
2016-12-05T03:20:36.059Z,23.31
2016-12-05T03:21:16.811Z,23.25
2016-12-05T03:21:57.566Z,23.22
2016-12-05T03:22:38.340Z,23.22
2016-12-05T03:23:19.110Z,23.27
2016-12-05T03:23:59.861Z,23.23
2016-12-05T03:24:40.649Z,23.25
2016-12-05T03:25:21.385Z,23.23
2016-12-05T03:26:02.150Z,23.25
2016-12-05T03:26:42.909Z,23.17
2016-12-05T03:27:23.674Z,23.33
2016-12-05T03:28:04.465Z,23.25
2016-12-05T03:28:45.237Z,23.19
2016-12-05T03:29:25.990Z,23.31
2016-12-05T03:30:06.757Z,23.2
2016-12-05T03:30:47.530Z,23.17
2016-12-05T03:31:28.299Z,23.23
2016-12-05T03:32:09.088Z,23.22
2016-12-05T03:32:49.910Z,23.25
2016-12-05T03:33:30.687Z,23.2
2016-12-05T03:34:11.477Z,23.27
2016-12-05T03:34:52.242Z,23.28
2016-12-05T03:35:33.038Z,23.28
2016-12-05T03:36:13.827Z,23.33
2016-12-05T03:36:54.598Z,23.2
2016-12-05T03:37:35.384Z,23.25
2016-12-05T03:38:16.159Z,23.23
2016-12-05T03:38:56.944Z,23.25
2016-12-05T03:39:37.736Z,23.22
2016-12-05T03:40:18.507Z,23.16
2016-12-05T03:40:59.289Z,23.23
2016-12-05T03:41:40.041Z,23.22
2016-12-05T03:42:20.791Z,23.27
2016-12-05T03:43:01.605Z,23.22
2016-12-05T03:43:42.365Z,23.23
2016-12-05T03:44:23.132Z,23.16
2016-12-05T03:45:03.914Z,23.16
2016-12-05T03:45:44.682Z,23.35
2016-12-05T03:46:25.469Z,23.27
2016-12-05T03:47:06.248Z,23.22
2016-12-05T03:47:47.007Z,23.31
2016-12-05T03:48:27.788Z,23.22
2016-12-05T03:49:08.568Z,23.17
2016-12-05T03:49:49.307Z,23.2
2016-12-05T03:50:30.062Z,23.17
2016-12-05T03:51:10.813Z,23.23
2016-12-05T03:51:51.598Z,23.19
2016-12-05T03:52:32.391Z,23.2
2016-12-05T03:53:13.192Z,23.31
2016-12-05T03:53:53.976Z,23.2
2016-12-05T03:54:34.792Z,23.22
2016-12-05T03:55:15.553Z,23.2
2016-12-05T03:55:56.326Z,23.27
2016-12-05T03:56:37.082Z,23.2
2016-12-05T03:57:17.871Z,23.17
2016-12-05T03:57:58.645Z,23.13
2016-12-05T03:58:39.439Z,23.19
2016-12-05T03:59:20.294Z,23.19
2016-12-05T04:00:01.076Z,23.16
2016-12-05T04:00:41.829Z,23.12
2016-12-05T04:01:22.609Z,23.19
2016-12-05T04:02:03.370Z,23.25
2016-12-05T04:02:44.160Z,23.17
2016-12-05T04:03:24.955Z,23.19
2016-12-05T04:04:05.714Z,23.19
2016-12-05T04:04:46.514Z,23.16
2016-12-05T04:05:27.267Z,23.19
2016-12-05T04:06:08.058Z,23.22
2016-12-05T04:06:48.820Z,23.27
2016-12-05T04:07:29.603Z,23.25
2016-12-05T04:08:10.356Z,23.16
2016-12-05T04:08:51.125Z,23.22
2016-12-05T04:09:31.907Z,23.2
2016-12-05T04:10:12.682Z,23.2
2016-12-05T04:10:53.503Z,23.22
2016-12-05T04:11:34.295Z,23.27
2016-12-05T04:12:15.074Z,23.2
2016-12-05T04:12:55.834Z,23.28
2016-12-05T04:13:36.600Z,23.28
2016-12-05T04:14:17.406Z,23.17
2016-12-05T04:14:58.186Z,23.16
2016-12-05T04:15:38.970Z,23.23
2016-12-05T04:16:19.719Z,23.23
2016-12-05T04:17:00.493Z,23.2
2016-12-05T04:17:41.258Z,23.32
2016-12-05T04:18:22.067Z,23.2
2016-12-05T04:19:02.838Z,23.2
2016-12-05T04:19:43.620Z,23.17
2016-12-05T04:20:24.388Z,23.15
2016-12-05T04:21:05.144Z,23.17
2016-12-05T04:21:45.936Z,23.15
2016-12-05T04:22:26.700Z,23.17
2016-12-05T04:23:07.472Z,23.25
2016-12-05T04:23:48.259Z,23.2
2016-12-05T04:24:29.020Z,23.23
2016-12-05T04:25:09.785Z,23.17
2016-12-05T04:25:50.569Z,23.22
2016-12-05T04:26:31.348Z,23.27
2016-12-05T04:27:12.139Z,23.2
2016-12-05T04:27:52.896Z,23.2
2016-12-05T04:28:33.675Z,23.17
2016-12-05T04:29:14.429Z,23.16
2016-12-05T04:29:55.210Z,23.2
2016-12-05T04:30:35.985Z,23.17
2016-12-05T04:31:16.769Z,23.22
2016-12-05T04:31:58.092Z,23.23
2016-12-05T04:32:38.328Z,23.17
2016-12-05T04:33:19.101Z,23.22
2016-12-05T04:33:59.905Z,23.23
2016-12-05T04:34:40.717Z,23.16
2016-12-05T04:35:21.493Z,23.23
2016-12-05T04:36:02.252Z,23.13
2016-12-05T04:36:43.027Z,23.23
2016-12-05T04:37:23.782Z,23.2
2016-12-05T04:38:04.532Z,23.23
2016-12-05T04:38:45.332Z,23.22
2016-12-05T04:39:26.105Z,23.23
2016-12-05T04:40:06.879Z,23.2
2016-12-05T04:40:47.656Z,23.22
2016-12-05T04:41:28.466Z,23.33
2016-12-05T04:42:09.223Z,23.17
2016-12-05T04:42:50.005Z,23.17
2016-12-05T04:43:30.817Z,23.27
2016-12-05T04:44:11.584Z,23.19
2016-12-05T04:44:52.383Z,23.19
2016-12-05T04:45:33.147Z,23.2
2016-12-05T04:46:13.906Z,23.17
2016-12-05T04:46:54.675Z,23.16
2016-12-05T04:47:35.449Z,23.17
2016-12-05T04:48:16.245Z,23.19
2016-12-05T04:48:57.044Z,23.2
2016-12-05T04:49:37.837Z,23.16
2016-12-05T04:50:18.607Z,23.25
2016-12-05T04:50:59.369Z,23.17
2016-12-05T04:51:40.144Z,23.2
2016-12-05T04:52:20.904Z,23.16
2016-12-05T04:53:01.681Z,23.12
2016-12-05T04:53:42.477Z,23.13
2016-12-05T04:54:23.230Z,23.16
2016-12-05T04:55:04.051Z,23.17
2016-12-05T04:55:44.797Z,23.13
2016-12-05T04:56:25.578Z,23.2
2016-12-05T04:57:06.349Z,23.13
2016-12-05T04:57:47.118Z,23.16
2016-12-05T04:58:27.909Z,23.17
2016-12-05T04:59:08.634Z,23.19
2016-12-05T04:59:49.447Z,23.19
2016-12-05T05:00:30.238Z,23.16
2016-12-05T05:01:11.028Z,23.13
2016-12-05T05:01:51.785Z,23.1
2016-12-05T05:02:32.567Z,23.19
2016-12-05T05:03:13.312Z,23.07
2016-12-05T05:03:54.078Z,23.16
2016-12-05T05:04:34.881Z,23.19
2016-12-05T05:05:15.672Z,23.17
2016-12-05T05:05:56.444Z,23.15
2016-12-05T05:06:37.233Z,23.17
2016-12-05T05:07:18.016Z,23.15
2016-12-05T05:07:58.811Z,23.15
2016-12-05T05:08:39.628Z,23.13
2016-12-05T05:09:20.377Z,23.13
2016-12-05T05:10:01.158Z,23.1
2016-12-05T05:10:41.947Z,23.1
2016-12-05T05:11:22.714Z,23.12
2016-12-05T05:12:03.485Z,23.19
2016-12-05T05:12:44.257Z,23.13
2016-12-05T05:13:25.042Z,23.13
2016-12-05T05:14:05.811Z,23.13
2016-12-05T05:14:46.559Z,23.17
2016-12-05T05:15:27.356Z,23.1
2016-12-05T05:16:08.146Z,23.17
2016-12-05T05:16:48.917Z,23.13
2016-12-05T05:17:29.700Z,23.2
2016-12-05T05:18:10.483Z,23.12
2016-12-05T05:18:51.253Z,23.15
2016-12-05T05:19:32.006Z,23.19
2016-12-05T05:20:12.824Z,23.17
2016-12-05T05:20:53.606Z,23.17
2016-12-05T05:21:34.370Z,23.15
2016-12-05T05:22:15.152Z,23.27
2016-12-05T05:22:55.934Z,23.23
2016-12-05T05:23:36.693Z,23.12
2016-12-05T05:24:17.471Z,23.23
2016-12-05T05:24:58.236Z,23.16
2016-12-05T05:25:39.008Z,23.15
2016-12-05T05:26:19.758Z,23.19
2016-12-05T05:27:00.546Z,23.2
2016-12-05T05:27:41.321Z,23.2
2016-12-05T05:28:22.099Z,23.16
2016-12-05T05:29:02.855Z,23.15
2016-12-05T05:29:43.638Z,23.15
2016-12-05T05:30:24.397Z,23.16
2016-12-05T05:31:05.214Z,23.16
2016-12-05T05:31:45.977Z,23.16
2016-12-05T05:32:26.758Z,23.16
2016-12-05T05:33:07.520Z,23.15
2016-12-05T05:33:48.285Z,23.15
2016-12-05T05:34:29.059Z,23.12
2016-12-05T05:35:09.849Z,23.13
2016-12-05T05:35:50.605Z,23.17
2016-12-05T05:36:31.348Z,23.15
2016-12-05T05:37:12.147Z,23.13
2016-12-05T05:37:52.923Z,23.17
2016-12-05T05:38:33.710Z,23.16
2016-12-05T05:39:14.482Z,23.09
2016-12-05T05:39:55.251Z,23.15
2016-12-05T05:40:36.025Z,23.15
2016-12-05T05:41:16.825Z,23.1
2016-12-05T05:41:57.595Z,23.17
2016-12-05T05:42:38.424Z,23.12
2016-12-05T05:43:19.222Z,23.13
2016-12-05T05:44:00.042Z,23.13
2016-12-05T05:44:40.831Z,23.15
2016-12-05T05:45:21.590Z,23.16
2016-12-05T05:46:02.362Z,23.17
2016-12-05T05:46:43.099Z,23.17
2016-12-05T05:47:23.853Z,23.16
2016-12-05T05:48:04.640Z,23.09
2016-12-05T05:48:45.423Z,23.16
2016-12-05T05:49:26.208Z,23.13
2016-12-05T05:50:06.995Z,23.16
2016-12-05T05:50:47.760Z,23.13
2016-12-05T05:51:28.514Z,23.2
2016-12-05T05:52:09.283Z,23.17
2016-12-05T05:52:50.073Z,23.16
2016-12-05T05:53:30.842Z,23.13
2016-12-05T05:54:11.628Z,23.19
2016-12-05T05:54:52.366Z,23.15
2016-12-05T05:55:33.124Z,23.13
2016-12-05T05:56:13.906Z,23.13
2016-12-05T05:56:54.693Z,23.16
2016-12-05T05:57:35.480Z,23.2
2016-12-05T05:58:16.238Z,23.2
2016-12-05T05:58:56.989Z,23.13
2016-12-05T05:59:37.805Z,23.12
2016-12-05T06:00:18.577Z,23.17
2016-12-05T06:00:59.325Z,23.1
2016-12-05T06:01:40.115Z,23.15
2016-12-05T06:02:20.904Z,23.12
2016-12-05T06:03:01.686Z,23.16
2016-12-05T06:03:42.464Z,23.15
2016-12-05T06:04:23.218Z,23.13
2016-12-05T06:05:03.991Z,23.15
2016-12-05T06:05:44.787Z,23.15
2016-12-05T06:06:25.544Z,23.15
2016-12-05T06:07:06.330Z,23.19
2016-12-05T06:07:47.111Z,23.16
2016-12-05T06:08:27.890Z,23.12
2016-12-05T06:09:08.680Z,23.22
2016-12-05T06:09:49.444Z,23.16
2016-12-05T06:10:30.256Z,23.23
2016-12-05T06:11:11.038Z,23.15
2016-12-05T06:11:51.800Z,23.13
2016-12-05T06:12:32.577Z,23.19
2016-12-05T06:13:13.355Z,23.2
2016-12-05T06:13:54.132Z,23.22
2016-12-05T06:14:34.902Z,23.17
2016-12-05T06:15:15.676Z,23.22
2016-12-05T06:15:56.454Z,23.27
2016-12-05T06:16:37.238Z,23.32
2016-12-05T06:17:18.016Z,23.23
2016-12-05T06:17:58.786Z,23.17
2016-12-05T06:18:39.561Z,23.23
2016-12-05T06:19:20.359Z,23.15
2016-12-05T06:20:01.157Z,23.27
2016-12-05T06:20:41.934Z,23.27
2016-12-05T06:21:22.729Z,23.27
2016-12-05T06:22:03.503Z,23.23
2016-12-05T06:22:44.265Z,23.22
2016-12-05T06:23:25.034Z,23.31
2016-12-05T06:24:05.796Z,23.23
2016-12-05T06:24:46.569Z,23.19
2016-12-05T06:25:27.329Z,23.32
2016-12-05T06:26:08.105Z,23.17
2016-12-05T06:26:48.883Z,23.23
2016-12-05T06:27:29.672Z,23.22
2016-12-05T06:28:10.451Z,23.32
2016-12-05T06:28:51.214Z,23.27
2016-12-05T06:29:31.998Z,23.27
2016-12-05T06:30:12.781Z,23.19
2016-12-05T06:30:53.594Z,23.33
2016-12-05T06:31:34.357Z,23.35
2016-12-05T06:32:15.145Z,23.23
2016-12-05T06:32:55.918Z,23.22
2016-12-05T06:33:36.668Z,23.27
2016-12-05T06:34:17.431Z,23.27
2016-12-05T06:34:58.202Z,23.2
2016-12-05T06:35:39.009Z,23.22
2016-12-05T06:36:19.776Z,23.25
2016-12-05T06:37:00.555Z,23.25
2016-12-05T06:37:41.318Z,23.23
2016-12-05T06:38:22.077Z,23.31
2016-12-05T06:39:02.879Z,23.25
2016-12-05T06:39:43.668Z,23.27
2016-12-05T06:40:24.467Z,23.22
2016-12-05T06:41:05.257Z,23.28
2016-12-05T06:41:45.989Z,23.28
2016-12-05T06:42:26.768Z,23.23
2016-12-05T06:43:07.552Z,23.23
2016-12-05T06:43:48.312Z,23.22
2016-12-05T06:44:29.070Z,23.2
2016-12-05T06:45:09.885Z,23.27
2016-12-05T06:45:50.677Z,23.25
2016-12-05T06:46:31.473Z,23.25
2016-12-05T06:47:12.290Z,23.31
2016-12-05T06:47:53.067Z,23.27
2016-12-05T06:48:33.854Z,23.31
2016-12-05T06:49:14.625Z,23.31
2016-12-05T06:49:55.415Z,23.28
2016-12-05T06:50:36.175Z,23.32
2016-12-05T06:51:16.955Z,23.31
2016-12-05T06:51:57.740Z,23.39
2016-12-05T06:52:38.495Z,23.28
2016-12-05T06:53:19.290Z,23.28
2016-12-05T06:54:00.042Z,23.31
2016-12-05T06:54:40.841Z,23.28
2016-12-05T06:55:21.609Z,23.31
2016-12-05T06:56:02.382Z,23.32
2016-12-05T06:56:43.150Z,23.25
2016-12-05T06:57:23.919Z,23.27
2016-12-05T06:58:04.707Z,23.28
2016-12-05T06:58:45.472Z,23.25
2016-12-05T06:59:26.242Z,23.31
2016-12-05T07:00:06.996Z,23.27
2016-12-05T07:00:47.760Z,23.32
2016-12-05T07:01:28.527Z,23.27
2016-12-05T07:02:09.304Z,23.31
2016-12-05T07:02:50.071Z,23.25
2016-12-05T07:03:30.843Z,23.25
2016-12-05T07:04:11.619Z,23.27
2016-12-05T07:04:52.357Z,23.31
2016-12-05T07:05:33.133Z,23.31
2016-12-05T07:06:13.903Z,23.23
2016-12-05T07:06:54.671Z,23.27
2016-12-05T07:07:35.463Z,23.25
2016-12-05T07:08:16.217Z,23.22
2016-12-05T07:08:56.986Z,23.28
2016-12-05T07:09:37.781Z,23.23
2016-12-05T07:10:18.555Z,23.25
2016-12-05T07:10:59.310Z,23.25
2016-12-05T07:11:40.117Z,23.22
2016-12-05T07:12:20.930Z,23.23
2016-12-05T07:13:01.711Z,23.4
2016-12-05T07:13:42.467Z,23.35
2016-12-05T07:14:23.230Z,23.4
2016-12-05T07:15:04.010Z,23.28
2016-12-05T07:15:44.744Z,23.25
2016-12-05T07:16:25.529Z,23.25
2016-12-05T07:17:06.299Z,23.35
2016-12-05T07:17:47.104Z,23.33
2016-12-05T07:18:27.853Z,23.31
2016-12-05T07:19:08.606Z,23.23
2016-12-05T07:19:49.379Z,23.23
2016-12-05T07:20:30.120Z,23.32
2016-12-05T07:21:10.930Z,23.35
2016-12-05T07:21:51.725Z,23.23
2016-12-05T07:22:32.485Z,23.36
2016-12-05T07:23:13.248Z,23.25
2016-12-05T07:23:54.077Z,23.28
2016-12-05T07:24:34.836Z,23.23
2016-12-05T07:25:15.602Z,23.28
2016-12-05T07:25:56.388Z,23.25
2016-12-05T07:26:37.131Z,23.2
2016-12-05T07:27:17.899Z,23.27
2016-12-05T07:27:58.669Z,23.25
2016-12-05T07:28:39.449Z,23.23
2016-12-05T07:29:20.230Z,23.23
2016-12-05T07:30:01.022Z,23.25
2016-12-05T07:30:41.814Z,23.23
2016-12-05T07:31:22.617Z,23.23
2016-12-05T07:32:03.393Z,23.28
2016-12-05T07:32:44.219Z,23.28
2016-12-05T07:33:24.994Z,23.25
2016-12-05T07:34:05.800Z,23.31
2016-12-05T07:34:46.607Z,23.35
2016-12-05T07:35:27.416Z,23.25
2016-12-05T07:36:08.219Z,23.23
2016-12-05T07:36:48.983Z,23.23
2016-12-05T07:37:29.771Z,23.23
2016-12-05T07:38:10.547Z,23.31
2016-12-05T07:38:51.334Z,23.31
2016-12-05T07:39:32.094Z,23.28
2016-12-05T07:40:12.845Z,23.22
2016-12-05T07:40:53.621Z,23.27
2016-12-05T07:41:34.387Z,23.22
2016-12-05T07:42:15.134Z,23.31
2016-12-05T07:42:55.909Z,23.28
2016-12-05T07:43:36.700Z,23.23
2016-12-05T07:44:17.480Z,23.28
2016-12-05T07:44:58.233Z,23.23
2016-12-05T07:45:39.038Z,23.31
2016-12-05T07:46:19.793Z,23.25
2016-12-05T07:47:00.601Z,23.22
2016-12-05T07:47:41.385Z,23.19
2016-12-05T07:48:22.138Z,23.22
2016-12-05T07:49:02.889Z,23.27
2016-12-05T07:49:43.651Z,23.23
2016-12-05T07:50:24.499Z,23.27
2016-12-05T07:51:05.272Z,23.35
2016-12-05T07:51:46.069Z,23.38
2016-12-05T07:52:26.874Z,23.4
2016-12-05T07:53:07.674Z,23.4
2016-12-05T07:53:48.450Z,23.39
2016-12-05T07:54:29.237Z,23.35
2016-12-05T07:55:10.007Z,23.38
2016-12-05T07:55:50.783Z,23.5
2016-12-05T07:56:31.635Z,23.4
2016-12-05T07:57:12.445Z,23.39
2016-12-05T07:57:53.227Z,23.46
2016-12-05T07:58:34.703Z,23.42
2016-12-05T07:59:14.822Z,23.39
2016-12-05T07:59:55.660Z,23.42
2016-12-05T08:00:36.481Z,23.46
2016-12-05T08:01:17.298Z,23.46
2016-12-05T08:01:58.057Z,23.55
2016-12-05T08:02:38.861Z,23.5
2016-12-05T08:03:19.734Z,23.48
2016-12-05T08:04:00.500Z,23.5
2016-12-05T08:04:41.287Z,23.47
2016-12-05T08:05:22.038Z,23.51
2016-12-05T08:06:02.802Z,23.54
2016-12-05T08:06:43.583Z,23.5
2016-12-05T08:07:24.407Z,23.54
2016-12-05T08:08:05.260Z,23.57
2016-12-05T08:08:46.075Z,23.57
2016-12-05T08:09:26.853Z,23.48
2016-12-05T08:10:07.686Z,23.61
2016-12-05T08:10:48.494Z,23.58
2016-12-05T08:11:29.244Z,23.63
2016-12-05T08:12:10.025Z,23.55
2016-12-05T08:12:50.816Z,23.6
2016-12-05T08:13:31.582Z,23.6
2016-12-05T08:14:12.375Z,23.58
2016-12-05T08:14:53.703Z,23.58
2016-12-05T08:15:34.015Z,23.63
2016-12-05T08:16:14.851Z,23.61
2016-12-05T08:16:55.568Z,23.6
2016-12-05T08:17:36.323Z,23.57
2016-12-05T08:18:17.112Z,23.63
2016-12-05T08:18:57.851Z,23.63
2016-12-05T08:19:38.634Z,23.6
2016-12-05T08:20:19.404Z,23.58
2016-12-05T08:21:00.183Z,23.6
2016-12-05T08:21:41.007Z,23.53
2016-12-05T08:22:21.736Z,23.57
2016-12-05T08:23:02.503Z,23.61
2016-12-05T08:23:43.274Z,23.61
2016-12-05T08:24:24.083Z,23.6
2016-12-05T08:25:04.898Z,23.7
2016-12-05T08:25:45.691Z,23.63
2016-12-05T08:26:26.437Z,23.66
2016-12-05T08:27:07.220Z,23.63
2016-12-05T08:27:48.021Z,23.66
2016-12-05T08:28:28.830Z,23.75
2016-12-05T08:29:09.658Z,23.76
2016-12-05T08:29:50.450Z,23.76
2016-12-05T08:30:31.207Z,23.79
2016-12-05T08:31:12.049Z,23.73
2016-12-05T08:31:52.835Z,23.76
2016-12-05T08:32:33.713Z,23.78
2016-12-05T08:33:14.518Z,23.79
2016-12-05T08:33:55.299Z,23.78
2016-12-05T08:34:36.105Z,23.76
2016-12-05T08:35:16.896Z,23.72
2016-12-05T08:35:57.674Z,23.75
2016-12-05T08:36:38.423Z,23.73
2016-12-05T08:37:19.229Z,23.78
2016-12-05T08:38:00.025Z,23.78
2016-12-05T08:38:40.802Z,23.8
2016-12-05T08:39:21.561Z,23.83
2016-12-05T08:40:02.396Z,23.78
2016-12-05T08:40:43.178Z,23.84
2016-12-05T08:41:24.186Z,23.76
2016-12-05T08:42:04.979Z,23.78
2016-12-05T08:42:45.732Z,23.76
2016-12-05T08:43:26.526Z,23.75
2016-12-05T08:44:07.318Z,23.79
2016-12-05T08:44:48.083Z,23.85
2016-12-05T08:45:28.850Z,23.8
2016-12-05T08:46:09.684Z,23.84